sensor_id;sensor_type;location;lat;lon;timestamp;pressure;altitude;pressure_sealevel;temperature;humidity
71964;BME280;59834;52.124;5.422;2023-04-30T00:00:24;102458.50;;;7.30;88.75
71964;BME280;59834;52.124;5.422;2023-04-30T00:03:09;102453.47;;;7.22;88.57
71964;BME280;59834;52.124;5.422;2023-04-30T00:05:35;102457.91;;;7.19;89.30
71964;BME280;59834;52.124;5.422;2023-04-30T00:08:03;102452.69;;;7.19;88.58
71964;BME280;59834;52.124;5.422;2023-04-30T00:10:30;102453.63;;;7.16;89.01
71964;BME280;59834;52.124;5.422;2023-04-30T00:12:56;102448.47;;;7.13;89.77
71964;BME280;59834;52.124;5.422;2023-04-30T00:15:23;102443.41;;;7.08;89.93
71964;BME280;59834;52.124;5.422;2023-04-30T00:17:49;102451.41;;;6.99;89.84
71964;BME280;59834;52.124;5.422;2023-04-30T00:20:16;102452.44;;;6.92;89.89
71964;BME280;59834;52.124;5.422;2023-04-30T00:22:43;102452.56;;;6.86;89.35
71964;BME280;59834;52.124;5.422;2023-04-30T00:25:10;102449.06;;;6.89;89.19
71964;BME280;59834;52.124;5.422;2023-04-30T00:27:36;102449.00;;;6.90;89.21
71964;BME280;59834;52.124;5.422;2023-04-30T00:30:06;102450.81;;;6.88;89.53
71964;BME280;59834;52.124;5.422;2023-04-30T00:32:33;102452.50;;;6.89;89.41
71964;BME280;59834;52.124;5.422;2023-04-30T00:34:59;102447.38;;;6.86;89.55
71964;BME280;59834;52.124;5.422;2023-04-30T00:37:26;102447.41;;;6.84;89.83
71964;BME280;59834;52.124;5.422;2023-04-30T00:39:52;102446.63;;;6.81;90.08
71964;BME280;59834;52.124;5.422;2023-04-30T00:42:19;102454.34;;;6.84;90.59
71964;BME280;59834;52.124;5.422;2023-04-30T00:44:46;102449.97;;;6.86;90.57
71964;BME280;59834;52.124;5.422;2023-04-30T00:47:15;102459.41;;;6.90;90.09
71964;BME280;59834;52.124;5.422;2023-04-30T00:49:45;102460.25;;;6.91;90.07
71964;BME280;59834;52.124;5.422;2023-04-30T00:52:12;102462.84;;;6.92;89.72
71964;BME280;59834;52.124;5.422;2023-04-30T00:54:38;102463.78;;;6.90;90.71
71964;BME280;59834;52.124;5.422;2023-04-30T00:57:06;102463.78;;;6.90;91.35
71964;BME280;59834;52.124;5.422;2023-04-30T00:59:34;102464.69;;;6.87;91.34
71964;BME280;59834;52.124;5.422;2023-04-30T01:02:01;102471.75;;;6.82;91.13
71964;BME280;59834;52.124;5.422;2023-04-30T01:04:30;102473.59;;;6.77;91.64
71964;BME280;59834;52.124;5.422;2023-04-30T01:06:56;102470.31;;;6.67;91.93
71964;BME280;59834;52.124;5.422;2023-04-30T01:09:23;102466.13;;;6.61;92.01
71964;BME280;59834;52.124;5.422;2023-04-30T01:15:03;102472.28;;;6.57;91.41
71964;BME280;59834;52.124;5.422;2023-04-30T01:20:10;102478.50;;;6.49;92.18
71964;BME280;59834;52.124;5.422;2023-04-30T01:22:54;102474.28;;;6.43;92.31
71964;BME280;59834;52.124;5.422;2023-04-30T01:28:14;102470.88;;;6.41;92.85
71964;BME280;59834;52.124;5.422;2023-04-30T01:30:42;102481.28;;;6.41;92.36
71964;BME280;59834;52.124;5.422;2023-04-30T01:33:12;102481.34;;;6.38;92.53
71964;BME280;59834;52.124;5.422;2023-04-30T01:35:45;102483.94;;;6.38;92.41
71964;BME280;59834;52.124;5.422;2023-04-30T01:41:20;102482.28;;;6.34;92.28
71964;BME280;59834;52.124;5.422;2023-04-30T01:46:29;102472.69;;;6.36;92.79
71964;BME280;59834;52.124;5.422;2023-04-30T01:49:14;102484.00;;;6.35;93.01
71964;BME280;59834;52.124;5.422;2023-04-30T01:51:45;102474.50;;;6.34;93.49
71964;BME280;59834;52.124;5.422;2023-04-30T01:57:04;102484.00;;;6.33;93.02
71964;BME280;59834;52.124;5.422;2023-04-30T01:59:34;102482.31;;;6.32;93.64
71964;BME280;59834;52.124;5.422;2023-04-30T02:02:02;102492.69;;;6.34;93.74
71964;BME280;59834;52.124;5.422;2023-04-30T02:04:28;102490.16;;;6.31;93.78
71964;BME280;59834;52.124;5.422;2023-04-30T02:06:55;102491.00;;;6.30;93.92
71964;BME280;59834;52.124;5.422;2023-04-30T02:09:21;102488.47;;;6.27;94.44
71964;BME280;59834;52.124;5.422;2023-04-30T02:11:50;102486.75;;;6.26;94.60
71964;BME280;59834;52.124;5.422;2023-04-30T02:14:16;102492.00;;;6.24;94.30
71964;BME280;59834;52.124;5.422;2023-04-30T02:16:43;102494.63;;;6.23;94.61
71964;BME280;59834;52.124;5.422;2023-04-30T02:19:10;102488.63;;;6.21;94.67
71964;BME280;59834;52.124;5.422;2023-04-30T02:21:37;102488.66;;;6.18;94.54
71964;BME280;59834;52.124;5.422;2023-04-30T02:24:04;102487.00;;;6.13;94.29
71964;BME280;59834;52.124;5.422;2023-04-30T02:26:31;102488.78;;;6.11;94.92
71964;BME280;59834;52.124;5.422;2023-04-30T02:28:58;102484.53;;;6.07;94.67
71964;BME280;59834;52.124;5.422;2023-04-30T02:31:24;102481.97;;;6.04;94.56
71964;BME280;59834;52.124;5.422;2023-04-30T02:33:51;102479.44;;;6.01;94.47
71964;BME280;59834;52.124;5.422;2023-04-30T02:36:17;102479.44;;;6.00;94.51
71964;BME280;59834;52.124;5.422;2023-04-30T02:38:44;102482.09;;;5.98;94.36
71964;BME280;59834;52.124;5.422;2023-04-30T02:41:10;102483.03;;;5.94;94.46
71964;BME280;59834;52.124;5.422;2023-04-30T02:43:37;102490.00;;;5.90;95.27
71964;BME280;59834;52.124;5.422;2023-04-30T02:46:04;102478.69;;;5.93;95.16
71964;BME280;59834;52.124;5.422;2023-04-30T02:48:30;102480.44;;;5.91;94.84
71964;BME280;59834;52.124;5.422;2023-04-30T02:50:57;102477.84;;;5.91;95.95
71964;BME280;59834;52.124;5.422;2023-04-30T02:53:23;102472.66;;;5.91;95.82
71964;BME280;59834;52.124;5.422;2023-04-30T02:55:50;102478.75;;;5.88;95.98
71964;BME280;59834;52.124;5.422;2023-04-30T02:58:17;102476.16;;;5.88;96.06
71964;BME280;59834;52.124;5.422;2023-04-30T03:00:43;102474.47;;;5.86;95.99
71964;BME280;59834;52.124;5.422;2023-04-30T03:03:10;102473.75;;;5.76;96.43
71964;BME280;59834;52.124;5.422;2023-04-30T03:05:37;102464.41;;;5.66;96.12
71964;BME280;59834;52.124;5.422;2023-04-30T03:08:03;102469.66;;;5.63;96.76
71964;BME280;59834;52.124;5.422;2023-04-30T03:10:30;102472.28;;;5.61;96.26
71964;BME280;59834;52.124;5.422;2023-04-30T03:12:56;102474.03;;;5.61;96.32
71964;BME280;59834;52.124;5.422;2023-04-30T03:15:25;102474.00;;;5.64;96.09
71964;BME280;59834;52.124;5.422;2023-04-30T03:17:51;102474.06;;;5.59;95.61
71964;BME280;59834;52.124;5.422;2023-04-30T03:20:18;102474.91;;;5.60;96.18
71964;BME280;59834;52.124;5.422;2023-04-30T03:22:45;102470.63;;;5.57;95.89
71964;BME280;59834;52.124;5.422;2023-04-30T03:25:11;102474.09;;;5.56;95.88
71964;BME280;59834;52.124;5.422;2023-04-30T03:27:38;102460.25;;;5.57;96.35
71964;BME280;59834;52.124;5.422;2023-04-30T03:30:05;102469.78;;;5.55;96.59
71964;BME280;59834;52.124;5.422;2023-04-30T03:32:32;102469.78;;;5.55;96.74
71964;BME280;59834;52.124;5.422;2023-04-30T03:34:59;102469.84;;;5.54;96.97
71964;BME280;59834;52.124;5.422;2023-04-30T03:37:26;102471.63;;;5.49;96.89
71964;BME280;59834;52.124;5.422;2023-04-30T03:39:54;102470.78;;;5.48;96.69
71964;BME280;59834;52.124;5.422;2023-04-30T03:42:21;102470.91;;;5.39;96.86
71964;BME280;59834;52.124;5.422;2023-04-30T03:44:48;102462.41;;;5.31;96.84
71964;BME280;59834;52.124;5.422;2023-04-30T03:47:14;102468.53;;;5.27;97.58
71964;BME280;59834;52.124;5.422;2023-04-30T03:49:41;102460.78;;;5.24;97.49
71964;BME280;59834;52.124;5.422;2023-04-30T03:52:08;102458.25;;;5.19;97.42
71964;BME280;59834;52.124;5.422;2023-04-30T03:54:34;102460.03;;;5.15;96.65
71964;BME280;59834;52.124;5.422;2023-04-30T03:57:01;102456.63;;;5.12;96.23
71964;BME280;59834;52.124;5.422;2023-04-30T03:59:30;102458.44;;;5.07;95.56
71964;BME280;59834;52.124;5.422;2023-04-30T04:01:59;102457.63;;;5.03;95.43
71964;BME280;59834;52.124;5.422;2023-04-30T04:04:27;102462.81;;;5.03;95.82
71964;BME280;59834;52.124;5.422;2023-04-30T04:06:54;102465.38;;;5.05;95.72
71964;BME280;59834;52.124;5.422;2023-04-30T04:09:24;102465.34;;;5.06;96.03
71964;BME280;59834;52.124;5.422;2023-04-30T04:12:09;102461.91;;;5.07;96.30
71964;BME280;59834;52.124;5.422;2023-04-30T04:14:39;102465.25;;;5.12;96.11
71964;BME280;59834;52.124;5.422;2023-04-30T04:17:09;102470.41;;;5.17;96.26
71964;BME280;59834;52.124;5.422;2023-04-30T04:19:36;102466.03;;;5.20;96.04
71964;BME280;59834;52.124;5.422;2023-04-30T04:22:06;102459.06;;;5.23;96.58
71964;BME280;59834;52.124;5.422;2023-04-30T04:24:37;102459.91;;;5.25;96.91
71964;BME280;59834;52.124;5.422;2023-04-30T04:27:15;102453.84;;;5.23;96.82
71964;BME280;59834;52.124;5.422;2023-04-30T04:29:49;102458.25;;;5.20;96.83
71964;BME280;59834;52.124;5.422;2023-04-30T04:32:20;102465.13;;;5.22;96.71
71964;BME280;59834;52.124;5.422;2023-04-30T04:34:49;102459.84;;;5.26;96.51
71964;BME280;59834;52.124;5.422;2023-04-30T04:37:16;102461.56;;;5.29;96.72
71964;BME280;59834;52.124;5.422;2023-04-30T04:39:42;102464.09;;;5.33;96.26
71964;BME280;59834;52.124;5.422;2023-04-30T04:42:10;102469.25;;;5.35;95.86
71964;BME280;59834;52.124;5.422;2023-04-30T04:44:37;102465.75;;;5.37;96.28
71964;BME280;59834;52.124;5.422;2023-04-30T04:47:04;102464.03;;;5.36;95.44
71964;BME280;59834;52.124;5.422;2023-04-30T04:49:31;102472.75;;;5.34;95.51
71964;BME280;59834;52.124;5.422;2023-04-30T04:51:58;102479.66;;;5.35;95.14
71964;BME280;59834;52.124;5.422;2023-04-30T04:54:24;102471.78;;;5.39;95.64
71964;BME280;59834;52.124;5.422;2023-04-30T04:56:51;102471.72;;;5.44;95.04
71964;BME280;59834;52.124;5.422;2023-04-30T04:59:18;102477.72;;;5.48;94.51
71964;BME280;59834;52.124;5.422;2023-04-30T05:01:44;102474.22;;;5.50;94.26
71964;BME280;59834;52.124;5.422;2023-04-30T05:04:11;102469.19;;;6.38;93.91
71964;BME280;59834;52.124;5.422;2023-04-30T05:06:39;102457.25;;;8.44;87.97
71964;BME280;59834;52.124;5.422;2023-04-30T05:09:06;102455.91;;;9.97;79.96
71964;BME280;59834;52.124;5.422;2023-04-30T05:11:37;102454.84;;;10.96;74.75
71964;BME280;59834;52.124;5.422;2023-04-30T05:14:04;102455.16;;;11.73;70.47
71964;BME280;59834;52.124;5.422;2023-04-30T05:16:37;102449.63;;;12.41;66.88
71964;BME280;59834;52.124;5.422;2023-04-30T05:19:07;102441.88;;;12.76;64.99
71964;BME280;59834;52.124;5.422;2023-04-30T05:21:35;102437.50;;;13.12;63.76
71964;BME280;59834;52.124;5.422;2023-04-30T05:24:02;102439.09;;;13.51;62.39
71964;BME280;59834;52.124;5.422;2023-04-30T05:26:43;102450.50;;;13.69;62.09
71964;BME280;59834;52.124;5.422;2023-04-30T05:29:12;102445.69;;;13.42;61.94
71964;BME280;59834;52.124;5.422;2023-04-30T05:31:48;102454.88;;;13.51;61.54
71964;BME280;59834;52.124;5.422;2023-04-30T05:34:20;102453.03;;;13.71;61.80
71964;BME280;59834;52.124;5.422;2023-04-30T05:36:49;102455.78;;;14.02;60.76
71964;BME280;59834;52.124;5.422;2023-04-30T05:39:18;102453.44;;;14.13;59.72
71964;BME280;59834;52.124;5.422;2023-04-30T05:41:47;102448.56;;;14.39;58.36
71964;BME280;59834;52.124;5.422;2023-04-30T05:44:30;102457.03;;;14.61;58.74
71964;BME280;59834;52.124;5.422;2023-04-30T05:47:11;102462.16;;;14.47;58.40
71964;BME280;59834;52.124;5.422;2023-04-30T05:49:45;102466.75;;;14.44;58.18
71964;BME280;59834;52.124;5.422;2023-04-30T05:52:11;102472.25;;;14.56;57.97
71964;BME280;59834;52.124;5.422;2023-04-30T05:54:40;102473.00;;;14.58;58.04
71964;BME280;59834;52.124;5.422;2023-04-30T05:57:09;102477.38;;;14.42;58.67
71964;BME280;59834;52.124;5.422;2023-04-30T05:59:36;102467.16;;;14.69;58.39
71964;BME280;59834;52.124;5.422;2023-04-30T06:02:05;102471.50;;;14.86;57.33
71964;BME280;59834;52.124;5.422;2023-04-30T06:04:34;102470.56;;;14.87;57.19
71964;BME280;59834;52.124;5.422;2023-04-30T06:07:08;102476.75;;;14.70;58.04
71964;BME280;59834;52.124;5.422;2023-04-30T06:09:35;102479.56;;;14.67;58.45
71964;BME280;59834;52.124;5.422;2023-04-30T06:12:09;102484.75;;;14.69;57.94
71964;BME280;59834;52.124;5.422;2023-04-30T06:14:47;102477.03;;;14.66;58.89
71964;BME280;59834;52.124;5.422;2023-04-30T06:17:21;102483.56;;;14.41;58.59
71964;BME280;59834;52.124;5.422;2023-04-30T06:19:47;102486.88;;;13.78;60.37
71964;BME280;59834;52.124;5.422;2023-04-30T06:22:14;102485.28;;;13.91;61.36
71964;BME280;59834;52.124;5.422;2023-04-30T06:24:41;102486.00;;;13.78;61.64
71964;BME280;59834;52.124;5.422;2023-04-30T06:27:08;102498.06;;;13.99;60.77
71964;BME280;59834;52.124;5.422;2023-04-30T06:29:34;102484.44;;;14.08;60.84
71964;BME280;59834;52.124;5.422;2023-04-30T06:32:02;102480.56;;;14.15;60.06
71964;BME280;59834;52.124;5.422;2023-04-30T06:34:31;102483.03;;;14.19;60.90
71964;BME280;59834;52.124;5.422;2023-04-30T06:36:57;102490.88;;;14.36;60.00
71964;BME280;59834;52.124;5.422;2023-04-30T06:39:24;102481.94;;;14.23;60.08
71964;BME280;59834;52.124;5.422;2023-04-30T06:41:51;102490.66;;;13.73;62.25
71964;BME280;59834;52.124;5.422;2023-04-30T06:44:17;102488.16;;;13.52;62.17
71964;BME280;59834;52.124;5.422;2023-04-30T06:46:44;102483.50;;;13.57;62.79
71964;BME280;59834;52.124;5.422;2023-04-30T06:49:11;102485.75;;;13.11;63.99
71964;BME280;59834;52.124;5.422;2023-04-30T06:51:40;102481.66;;;13.23;64.50
71964;BME280;59834;52.124;5.422;2023-04-30T06:54:06;102482.22;;;12.74;65.22
71964;BME280;59834;52.124;5.422;2023-04-30T06:56:33;102493.91;;;11.67;69.16
71964;BME280;59834;52.124;5.422;2023-04-30T06:59:00;102495.81;;;11.21;71.03
71964;BME280;59834;52.124;5.422;2023-04-30T07:01:27;102495.78;;;10.99;72.49
71964;BME280;59834;52.124;5.422;2023-04-30T07:03:54;102495.41;;;10.86;72.50
71964;BME280;59834;52.124;5.422;2023-04-30T07:06:21;102491.59;;;10.71;72.85
71964;BME280;59834;52.124;5.422;2023-04-30T07:08:49;102493.53;;;10.66;73.07
71964;BME280;59834;52.124;5.422;2023-04-30T07:11:16;102492.41;;;10.73;73.80
71964;BME280;59834;52.124;5.422;2023-04-30T07:13:42;102499.47;;;10.71;74.38
71964;BME280;59834;52.124;5.422;2023-04-30T07:16:10;102492.22;;;10.78;74.09
71964;BME280;59834;52.124;5.422;2023-04-30T07:18:37;102504.91;;;10.89;73.94
71964;BME280;59834;52.124;5.422;2023-04-30T07:21:03;102505.09;;;11.06;74.24
71964;BME280;59834;52.124;5.422;2023-04-30T07:23:30;102498.59;;;10.94;73.01
71964;BME280;59834;52.124;5.422;2023-04-30T07:25:56;102504.00;;;10.90;74.47
71964;BME280;59834;52.124;5.422;2023-04-30T07:28:23;102505.53;;;10.95;74.90
71964;BME280;59834;52.124;5.422;2023-04-30T07:30:50;102507.97;;;11.00;73.98
71964;BME280;59834;52.124;5.422;2023-04-30T07:33:17;102509.03;;;11.18;73.73
71964;BME280;59834;52.124;5.422;2023-04-30T07:35:45;102507.69;;;11.29;73.20
71964;BME280;59834;52.124;5.422;2023-04-30T07:38:11;102506.72;;;11.32;73.83
71964;BME280;59834;52.124;5.422;2023-04-30T07:40:38;102514.13;;;11.43;73.20
71964;BME280;59834;52.124;5.422;2023-04-30T07:43:07;102508.97;;;11.41;72.63
71964;BME280;59834;52.124;5.422;2023-04-30T07:45:34;102503.84;;;11.38;73.17
71964;BME280;59834;52.124;5.422;2023-04-30T07:48:02;102509.56;;;11.48;73.26
71964;BME280;59834;52.124;5.422;2023-04-30T07:50:30;102504.72;;;11.59;73.32
71964;BME280;59834;52.124;5.422;2023-04-30T07:53:00;102504.28;;;11.70;72.44
71964;BME280;59834;52.124;5.422;2023-04-30T07:55:27;102502.66;;;11.67;71.96
71964;BME280;59834;52.124;5.422;2023-04-30T07:57:54;102500.47;;;11.56;72.38
71964;BME280;59834;52.124;5.422;2023-04-30T08:00:20;102500.47;;;11.56;72.77
71964;BME280;59834;52.124;5.422;2023-04-30T08:02:47;102497.34;;;11.69;72.66
71964;BME280;59834;52.124;5.422;2023-04-30T08:05:15;102494.97;;;11.85;71.83
71964;BME280;59834;52.124;5.422;2023-04-30T08:07:42;102498.06;;;11.94;71.54
71964;BME280;59834;52.124;5.422;2023-04-30T08:10:09;102495.19;;;11.78;71.68
71964;BME280;59834;52.124;5.422;2023-04-30T08:12:36;102499.03;;;11.92;71.38
71964;BME280;59834;52.124;5.422;2023-04-30T08:15:04;102499.66;;;11.97;71.06
71964;BME280;59834;52.124;5.422;2023-04-30T08:17:32;102495.91;;;12.04;71.68
71964;BME280;59834;52.124;5.422;2023-04-30T08:20:00;102494.00;;;12.26;70.66
71964;BME280;59834;52.124;5.422;2023-04-30T08:22:26;102487.16;;;12.24;70.41
71964;BME280;59834;52.124;5.422;2023-04-30T08:24:53;102497.19;;;12.14;70.70
71964;BME280;59834;52.124;5.422;2023-04-30T08:27:22;102489.56;;;12.29;70.50
71964;BME280;59834;52.124;5.422;2023-04-30T08:29:48;102493.75;;;12.33;70.33
71964;BME280;59834;52.124;5.422;2023-04-30T08:32:17;102496.72;;;12.44;69.90
71964;BME280;59834;52.124;5.422;2023-04-30T08:34:44;102494.63;;;12.52;69.56
71964;BME280;59834;52.124;5.422;2023-04-30T08:37:11;102501.97;;;12.64;69.56
71964;BME280;59834;52.124;5.422;2023-04-30T08:39:38;102496.97;;;12.77;69.04
71964;BME280;59834;52.124;5.422;2023-04-30T08:42:08;102493.59;;;12.75;67.51
71964;BME280;59834;52.124;5.422;2023-04-30T08:44:35;102492.66;;;12.76;68.24
71964;BME280;59834;52.124;5.422;2023-04-30T08:47:05;102494.72;;;12.88;67.82
71964;BME280;59834;52.124;5.422;2023-04-30T08:49:33;102490.09;;;12.93;66.85
71964;BME280;59834;52.124;5.422;2023-04-30T08:52:02;102495.75;;;13.03;65.83
71964;BME280;59834;52.124;5.422;2023-04-30T08:54:32;102495.63;;;13.06;66.44
71964;BME280;59834;52.124;5.422;2023-04-30T08:57:00;102489.56;;;13.04;65.81
71964;BME280;59834;52.124;5.422;2023-04-30T08:59:27;102480.56;;;13.10;65.34
71964;BME280;59834;52.124;5.422;2023-04-30T09:01:54;102488.53;;;13.08;64.51
71964;BME280;59834;52.124;5.422;2023-04-30T09:04:21;102484.97;;;13.09;64.92
71964;BME280;59834;52.124;5.422;2023-04-30T09:06:47;102491.59;;;12.99;64.44
71964;BME280;59834;52.124;5.422;2023-04-30T09:09:16;102490.16;;;12.92;65.62
71964;BME280;59834;52.124;5.422;2023-04-30T09:11:42;102488.09;;;12.98;65.43
71964;BME280;59834;52.124;5.422;2023-04-30T09:14:09;102481.91;;;13.00;65.64
71964;BME280;59834;52.124;5.422;2023-04-30T09:16:47;102481.41;;;13.29;64.63
71964;BME280;59834;52.124;5.422;2023-04-30T09:19:28;102477.78;;;13.32;65.01
71964;BME280;59834;52.124;5.422;2023-04-30T09:21:55;102473.44;;;13.31;64.27
71964;BME280;59834;52.124;5.422;2023-04-30T09:24:24;102467.28;;;13.49;63.79
71964;BME280;59834;52.124;5.422;2023-04-30T09:26:51;102476.31;;;13.61;63.38
71964;BME280;59834;52.124;5.422;2023-04-30T09:29:17;102470.06;;;13.63;63.78
71964;BME280;59834;52.124;5.422;2023-04-30T09:31:45;102470.53;;;13.72;62.29
71964;BME280;59834;52.124;5.422;2023-04-30T09:34:12;102468.91;;;13.69;63.55
71964;BME280;59834;52.124;5.422;2023-04-30T09:36:52;102467.66;;;13.59;63.74
71964;BME280;59834;52.124;5.422;2023-04-30T09:39:22;102458.53;;;13.66;64.24
71964;BME280;59834;52.124;5.422;2023-04-30T09:41:50;102467.25;;;13.84;64.56
71964;BME280;59834;52.124;5.422;2023-04-30T09:46:57;102464.16;;;13.93;61.23
71964;BME280;59834;52.124;5.422;2023-04-30T09:49:26;102457.97;;;13.77;62.18
71964;BME280;59834;52.124;5.422;2023-04-30T09:51:58;102463.91;;;13.98;61.78
71964;BME280;59834;52.124;5.422;2023-04-30T09:54:26;102459.88;;;14.08;61.35
71964;BME280;59834;52.124;5.422;2023-04-30T09:56:58;102453.97;;;14.20;60.96
71964;BME280;59834;52.124;5.422;2023-04-30T10:01:58;102445.84;;;14.41;60.76
71964;BME280;59834;52.124;5.422;2023-04-30T10:04:28;102441.59;;;14.38;60.31
71964;BME280;59834;52.124;5.422;2023-04-30T10:06:56;102439.41;;;14.46;60.99
71964;BME280;59834;52.124;5.422;2023-04-30T10:09:28;102447.13;;;14.33;59.39
71964;BME280;59834;52.124;5.422;2023-04-30T10:11:58;102448.53;;;14.23;60.37
71964;BME280;59834;52.124;5.422;2023-04-30T10:14:28;102438.47;;;14.14;59.63
71964;BME280;59834;52.124;5.422;2023-04-30T10:17:10;102433.59;;;14.24;60.63
71964;BME280;59834;52.124;5.422;2023-04-30T10:19:42;102431.91;;;14.38;60.09
71964;BME280;59834;52.124;5.422;2023-04-30T10:22:13;102432.41;;;14.45;60.22
71964;BME280;59834;52.124;5.422;2023-04-30T10:24:41;102425.72;;;14.39;59.89
71964;BME280;59834;52.124;5.422;2023-04-30T10:27:10;102428.03;;;14.61;59.78
71964;BME280;59834;52.124;5.422;2023-04-30T10:29:37;102424.63;;;14.75;59.06
71964;BME280;59834;52.124;5.422;2023-04-30T10:32:06;102427.69;;;14.83;58.26
71964;BME280;59834;52.124;5.422;2023-04-30T10:38:03;102414.25;;;14.88;58.12
71964;BME280;59834;52.124;5.422;2023-04-30T10:40:37;102416.59;;;15.08;58.01
71964;BME280;59834;52.124;5.422;2023-04-30T10:43:04;102416.59;;;15.08;56.86
71964;BME280;59834;52.124;5.422;2023-04-30T10:45:35;102413.22;;;15.06;57.99
71964;BME280;59834;52.124;5.422;2023-04-30T10:48:04;102412.63;;;15.01;56.97
71964;BME280;59834;52.124;5.422;2023-04-30T10:50:32;102415.84;;;15.06;57.33
71964;BME280;59834;52.124;5.422;2023-04-30T10:53:02;102407.16;;;15.04;57.53
71964;BME280;59834;52.124;5.422;2023-04-30T10:55:29;102410.81;;;15.02;57.08
71964;BME280;59834;52.124;5.422;2023-04-30T10:57:57;102401.91;;;15.04;56.83
71964;BME280;59834;52.124;5.422;2023-04-30T11:00:27;102393.00;;;15.21;57.31
71964;BME280;59834;52.124;5.422;2023-04-30T11:03:02;102395.19;;;15.29;56.98
71964;BME280;59834;52.124;5.422;2023-04-30T11:05:35;102385.38;;;15.17;57.46
71964;BME280;59834;52.124;5.422;2023-04-30T11:08:03;102396.81;;;15.31;57.78
71964;BME280;59834;52.124;5.422;2023-04-30T11:10:34;102388.63;;;15.36;56.55
71964;BME280;59834;52.124;5.422;2023-04-30T11:13:18;102380.50;;;15.25;56.74
71964;BME280;59834;52.124;5.422;2023-04-30T11:16:15;102373.56;;;15.38;56.52
71964;BME280;59834;52.124;5.422;2023-04-30T11:18:45;102374.81;;;15.47;57.67
71964;BME280;59834;52.124;5.422;2023-04-30T11:21:13;102369.06;;;15.54;56.20
71964;BME280;59834;52.124;5.422;2023-04-30T11:24:02;102367.75;;;15.62;55.90
71964;BME280;59834;52.124;5.422;2023-04-30T11:27:04;102361.19;;;15.69;55.85
71964;BME280;59834;52.124;5.422;2023-04-30T11:29:33;102364.78;;;15.82;54.80
71964;BME280;59834;52.124;5.422;2023-04-30T11:32:06;102357.50;;;15.86;54.90
71964;BME280;59834;52.124;5.422;2023-04-30T11:34:33;102359.50;;;15.82;54.84
71964;BME280;59834;52.124;5.422;2023-04-30T11:37:01;102341.50;;;15.74;55.71
71964;BME280;59834;52.124;5.422;2023-04-30T11:39:28;102351.38;;;15.85;54.14
71964;BME280;59834;52.124;5.422;2023-04-30T11:41:57;102345.50;;;16.09;54.64
71964;BME280;59834;52.124;5.422;2023-04-30T11:44:28;102338.63;;;16.06;54.98
71964;BME280;59834;52.124;5.422;2023-04-30T11:47:03;102338.19;;;15.85;54.28
71964;BME280;59834;52.124;5.422;2023-04-30T11:49:32;102335.53;;;15.99;54.94
71964;BME280;59834;52.124;5.422;2023-04-30T11:51:59;102330.31;;;16.26;54.64
71964;BME280;59834;52.124;5.422;2023-04-30T11:54:26;102326.22;;;16.35;53.13
71964;BME280;59834;52.124;5.422;2023-04-30T11:56:54;102321.94;;;16.20;53.58
71964;BME280;59834;52.124;5.422;2023-04-30T11:59:31;102322.63;;;16.36;53.93
71964;BME280;59834;52.124;5.422;2023-04-30T12:01:58;102319.69;;;16.41;53.44
71964;BME280;59834;52.124;5.422;2023-04-30T12:04:28;102321.09;;;16.73;53.15
71964;BME280;59834;52.124;5.422;2023-04-30T12:06:55;102317.38;;;16.63;52.27
71964;BME280;59834;52.124;5.422;2023-04-30T12:09:22;102319.19;;;16.48;52.37
71964;BME280;59834;52.124;5.422;2023-04-30T12:11:49;102312.91;;;16.64;53.36
71964;BME280;59834;52.124;5.422;2023-04-30T12:14:44;102308.34;;;16.80;53.96
71964;BME280;59834;52.124;5.422;2023-04-30T12:17:11;102310.91;;;16.94;52.18
71964;BME280;59834;52.124;5.422;2023-04-30T12:19:38;102306.63;;;16.79;52.12
71964;BME280;59834;52.124;5.422;2023-04-30T12:22:04;102301.59;;;16.89;52.35
71964;BME280;59834;52.124;5.422;2023-04-30T12:24:33;102296.84;;;17.07;51.78
71964;BME280;59834;52.124;5.422;2023-04-30T12:27:32;102301.94;;;17.10;51.81
71964;BME280;59834;52.124;5.422;2023-04-30T12:30:25;102303.53;;;17.25;50.18
71964;BME280;59834;52.124;5.422;2023-04-30T12:32:58;102296.22;;;17.16;49.94
71964;BME280;59834;52.124;5.422;2023-04-30T12:35:29;102293.28;;;17.20;50.29
71964;BME280;59834;52.124;5.422;2023-04-30T12:38:06;102293.72;;;17.27;50.31
71964;BME280;59834;52.124;5.422;2023-04-30T12:40:36;102295.19;;;17.31;49.86
71964;BME280;59834;52.124;5.422;2023-04-30T12:43:04;102285.13;;;17.36;49.62
71964;BME280;59834;52.124;5.422;2023-04-30T12:45:52;102282.13;;;17.66;51.10
71964;BME280;59834;52.124;5.422;2023-04-30T12:48:43;102279.81;;;17.87;49.88
71964;BME280;59834;52.124;5.422;2023-04-30T12:54:47;102279.56;;;17.90;49.03
71964;BME280;59834;52.124;5.422;2023-04-30T12:57:15;102276.72;;;17.68;48.64
71964;BME280;59834;52.124;5.422;2023-04-30T13:02:57;102268.69;;;17.82;48.40
71964;BME280;59834;52.124;5.422;2023-04-30T13:05:24;102259.66;;;17.72;48.12
71964;BME280;59834;52.124;5.422;2023-04-30T13:08:00;102250.91;;;17.33;50.17
71964;BME280;59834;52.124;5.422;2023-04-30T13:10:37;102249.44;;;17.29;50.91
71964;BME280;59834;52.124;5.422;2023-04-30T13:13:37;102253.78;;;17.30;49.79
71964;BME280;59834;52.124;5.422;2023-04-30T13:16:07;102254.53;;;17.32;48.32
71964;BME280;59834;52.124;5.422;2023-04-30T13:18:40;102249.84;;;17.61;47.79
71964;BME280;59834;52.124;5.422;2023-04-30T13:21:06;102242.00;;;17.60;46.70
71964;BME280;59834;52.124;5.422;2023-04-30T13:23:47;102246.44;;;17.72;46.72
71964;BME280;59834;52.124;5.422;2023-04-30T13:26:25;102240.31;;;18.08;45.88
71964;BME280;59834;52.124;5.422;2023-04-30T13:28:52;102242.59;;;17.89;44.97
71964;BME280;59834;52.124;5.422;2023-04-30T13:31:39;102240.50;;;17.81;46.46
71964;BME280;59834;52.124;5.422;2023-04-30T13:34:35;102229.78;;;17.83;45.31
71964;BME280;59834;52.124;5.422;2023-04-30T13:37:05;102230.91;;;18.04;45.55